Terminal Aerodrome Forecast
Issued by NWS Louisville, KY

Home | Current Version | Previous Version | Text Only | Print | Product List | Glossary On
Versions: 1 2 3 4 5 6 7 8 9 10 11 12 13 14 15 16 17 18
000
FTUS43 KLMK 260812 AAB
TAFLEX
TAF AMD
KLEX 260812Z 2608/2706 VRB03KT 2SM BR SCT003
      TEMPO 2608/2612 1/2SM FG VV002
     FM261300 26006KT P6SM SCT050 PROB30 2620/2624 VRB10G20KT 4SM
      TSRA BR BKN035CB
     FM270000 VRB03KT P6SM SCT250=

USA.gov is the U.S. government's official web portal to all federal, state and local government web resources and services.